createdAt,value
2016-06-24T00:00:08.306Z,0
2016-06-24T00:01:08.296Z,0
2016-06-24T00:02:07.107Z,0
2016-06-24T00:03:07.131Z,0
2016-06-24T00:04:07.730Z,0
2016-06-24T00:05:07.734Z,0
2016-06-24T00:06:08.359Z,0
2016-06-24T00:07:08.368Z,0
2016-06-24T00:08:07.775Z,0
2016-06-24T00:09:08.386Z,0
2016-06-24T00:10:08.429Z,0
2016-06-24T00:11:07.207Z,0
2016-06-24T00:12:07.811Z,0
2016-06-24T00:13:07.841Z,0
2016-06-24T00:14:07.858Z,0
2016-06-24T00:15:07.247Z,0
2016-06-24T00:16:07.303Z,0
2016-06-24T00:17:07.280Z,0
2016-06-24T00:18:07.299Z,0
2016-06-24T00:19:09.100Z,0
2016-06-24T00:20:07.921Z,0
2016-06-24T00:21:07.928Z,0
2016-06-24T00:22:07.329Z,0
2016-06-24T00:23:08.541Z,0
2016-06-24T00:24:08.549Z,0
2016-06-24T00:25:08.563Z,0
2016-06-24T00:26:07.980Z,0
2016-06-24T00:27:08.588Z,0
2016-06-24T00:28:09.196Z,0
2016-06-24T00:29:08.619Z,0
2016-06-24T00:30:08.035Z,0
2016-06-24T00:31:07.431Z,0
2016-06-24T00:32:09.297Z,0
2016-06-24T00:33:08.642Z,0
2016-06-24T00:34:08.679Z,0
2016-06-24T00:35:08.666Z,0
2016-06-24T00:36:07.487Z,0
2016-06-24T00:37:07.489Z,0
2016-06-24T00:38:08.096Z,0
2016-06-24T00:39:08.155Z,0
2016-06-24T00:40:09.339Z,0
2016-06-24T00:41:08.726Z,0
2016-06-24T00:42:08.742Z,0
2016-06-24T00:43:08.763Z,0
2016-06-24T00:44:08.760Z,0
2016-06-24T00:45:08.234Z,0
2016-06-24T00:46:09.393Z,0
2016-06-24T00:47:08.205Z,0
2016-06-24T00:48:09.415Z,0
2016-06-24T00:49:08.233Z,0
2016-06-24T00:50:08.845Z,0
2016-06-24T00:51:08.843Z,0
2016-06-24T00:52:08.276Z,0
2016-06-24T00:53:09.479Z,0
2016-06-24T00:54:08.262Z,0
2016-06-24T00:55:08.302Z,0
2016-06-24T00:56:08.892Z,0
2016-06-24T00:57:08.309Z,0
2016-06-24T00:58:08.917Z,0
2016-06-24T00:59:09.538Z,0
2016-06-24T01:00:07.760Z,0
2016-06-24T01:01:08.370Z,0
2016-06-24T01:02:08.978Z,0
2016-06-24T01:03:08.378Z,0
2016-06-24T01:04:08.410Z,0
2016-06-24T01:05:09.632Z,0
2016-06-24T01:06:07.807Z,0
2016-06-24T01:07:09.634Z,0
2016-06-24T01:08:09.037Z,0
2016-06-24T01:09:09.056Z,0
2016-06-24T01:10:08.475Z,0
2016-06-24T01:11:08.465Z,0
2016-06-24T01:12:08.485Z,0
2016-06-24T01:13:08.491Z,0
2016-06-24T01:14:07.900Z,0
2016-06-24T01:15:08.290Z,0
2016-06-24T01:16:08.548Z,0
2016-06-24T01:17:09.130Z,0
2016-06-24T01:18:09.148Z,0
2016-06-24T01:19:08.552Z,0
2016-06-24T01:20:09.166Z,0
2016-06-24T01:21:09.777Z,0
2016-06-24T01:22:09.197Z,0
2016-06-24T01:23:07.997Z,0
2016-06-24T01:24:09.215Z,0
2016-06-24T01:25:09.215Z,0
2016-06-24T01:26:08.890Z,0
2016-06-24T01:27:08.826Z,0
2016-06-24T01:28:08.673Z,0
2016-06-24T01:29:08.659Z,0
2016-06-24T01:30:08.984Z,0
2016-06-24T01:31:08.704Z,0
2016-06-24T01:32:09.314Z,0
2016-06-24T01:33:08.846Z,0
2016-06-24T01:34:08.133Z,0
2016-06-24T01:35:08.128Z,0
2016-06-24T01:36:09.344Z,0
2016-06-24T01:37:09.515Z,0
2016-06-24T01:38:09.374Z,0
2016-06-24T01:39:08.778Z,0
2016-06-24T01:40:08.202Z,0
2016-06-24T01:41:08.953Z,0
2016-06-24T01:42:08.819Z,0
2016-06-24T01:43:09.429Z,0
2016-06-24T01:44:09.422Z,0
2016-06-24T01:45:09.459Z,0
2016-06-24T01:46:09.112Z,0
2016-06-24T01:47:09.495Z,0
2016-06-24T01:48:08.284Z,0
2016-06-24T01:49:08.897Z,0
2016-06-24T01:50:09.757Z,0
2016-06-24T01:51:08.899Z,0
2016-06-24T01:52:08.516Z,0
2016-06-24T01:53:09.023Z,0
2016-06-24T01:54:08.345Z,0
2016-06-24T01:55:09.712Z,0
2016-06-24T01:56:10.164Z,0
2016-06-24T01:57:09.626Z,0
2016-06-24T01:58:08.381Z,0
2016-06-24T01:59:09.628Z,0
2016-06-24T02:00:10.379Z,0
2016-06-24T02:01:09.616Z,0
2016-06-24T02:02:10.365Z,0
2016-06-24T02:03:09.899Z,0
2016-06-24T02:04:09.671Z,0
2016-06-24T02:05:09.688Z,0
2016-06-24T02:06:10.385Z,0
2016-06-24T02:07:09.781Z,0
2016-06-24T02:08:09.101Z,0
2016-06-24T02:09:09.963Z,0
2016-06-24T02:10:08.517Z,0
2016-06-24T02:11:09.762Z,0
2016-06-24T02:12:08.547Z,0
2016-06-24T02:13:09.778Z,0
2016-06-24T02:14:09.509Z,0
2016-06-24T02:15:08.571Z,0
2016-06-24T02:16:09.840Z,0
2016-06-24T02:17:08.606Z,0
2016-06-24T02:18:09.790Z,0
2016-06-24T02:19:09.919Z,0
2016-06-24T02:20:09.831Z,0
2016-06-24T02:21:09.227Z,0
2016-06-24T02:22:10.929Z,0
2016-06-24T02:23:09.266Z,0
2016-06-24T02:24:09.256Z,0
2016-06-24T02:25:09.275Z,0
2016-06-24T02:26:10.233Z,0
2016-06-24T02:27:09.298Z,0
2016-06-24T02:28:09.668Z,0
2016-06-24T02:29:10.530Z,0
2016-06-24T02:30:09.583Z,0
2016-06-24T02:31:10.245Z,0
2016-06-24T02:32:09.386Z,0
2016-06-24T02:33:09.428Z,0
2016-06-24T02:34:09.975Z,0
2016-06-24T02:35:08.798Z,0
2016-06-24T02:36:10.311Z,0
2016-06-24T02:37:09.523Z,0
2016-06-24T02:38:10.032Z,0
2016-06-24T02:39:10.038Z,0
2016-06-24T02:40:09.457Z,0
2016-06-24T02:41:10.749Z,0
2016-06-24T02:42:10.058Z,0
2016-06-24T02:43:10.082Z,0
2016-06-24T02:44:10.091Z,0
2016-06-24T02:45:09.739Z,0
2016-06-24T02:46:09.500Z,0
2016-06-24T02:47:10.119Z,0
2016-06-24T02:48:10.869Z,0
2016-06-24T02:49:09.526Z,0
2016-06-24T02:50:08.970Z,0
2016-06-24T02:51:10.159Z,0
2016-06-24T02:52:09.566Z,0
2016-06-24T02:53:09.578Z,0
2016-06-24T02:54:09.596Z,0
2016-06-24T02:55:10.214Z,0
2016-06-24T02:56:10.823Z,0
2016-06-24T02:57:10.230Z,0
2016-06-24T02:58:10.240Z,0
2016-06-24T02:59:10.262Z,0
2016-06-24T03:00:10.848Z,0
2016-06-24T03:01:10.268Z,0
2016-06-24T03:02:10.277Z,0
2016-06-24T03:03:10.296Z,0
2016-06-24T03:04:10.300Z,0
2016-06-24T03:05:10.939Z,0
2016-06-24T03:06:09.724Z,0
2016-06-24T03:07:10.339Z,0
2016-06-24T03:08:10.349Z,0
2016-06-24T03:09:09.146Z,0
2016-06-24T03:10:09.169Z,0
2016-06-24T03:11:09.778Z,0
2016-06-24T03:12:10.986Z,0
2016-06-24T03:13:10.035Z,0
2016-06-24T03:14:11.011Z,0
2016-06-24T03:15:09.826Z,0
2016-06-24T03:16:09.878Z,0
2016-06-24T03:17:09.827Z,0
2016-06-24T03:18:10.464Z,0
2016-06-24T03:19:11.087Z,0
2016-06-24T03:20:10.479Z,0
2016-06-24T03:21:10.486Z,0
2016-06-24T03:22:09.923Z,0
2016-06-24T03:23:11.110Z,0
2016-06-24T03:24:09.338Z,0
2016-06-24T03:25:09.922Z,0
2016-06-24T03:26:10.534Z,0
2016-06-24T03:27:10.550Z,0
2016-06-24T03:28:09.955Z,0
2016-06-24T03:29:09.975Z,0
2016-06-24T03:30:09.990Z,0
2016-06-24T03:31:10.597Z,0
2016-06-24T03:32:10.046Z,0
2016-06-24T03:33:10.607Z,0
2016-06-24T03:34:10.619Z,0
2016-06-24T03:35:10.046Z,0
2016-06-24T03:36:10.034Z,0
2016-06-24T03:37:11.274Z,0
2016-06-24T03:38:10.092Z,0
2016-06-24T03:39:10.075Z,0
2016-06-24T03:40:11.300Z,0
2016-06-24T03:41:10.144Z,4
2016-06-24T03:42:10.701Z,4
2016-06-24T03:43:10.135Z,4
2016-06-24T03:44:11.325Z,4
2016-06-24T03:45:10.980Z,4
2016-06-24T03:46:10.746Z,4
2016-06-24T03:47:11.383Z,4
2016-06-24T03:48:10.175Z,4
2016-06-24T03:49:10.179Z,4
2016-06-24T03:50:10.190Z,4
2016-06-24T03:51:10.829Z,0
2016-06-24T03:52:10.822Z,0
2016-06-24T03:53:11.427Z,4
2016-06-24T03:54:10.859Z,4
2016-06-24T03:55:10.854Z,4
2016-06-24T03:56:10.874Z,4
2016-06-24T03:57:11.477Z,4
2016-06-24T03:58:09.702Z,4
2016-06-24T03:59:11.499Z,4
2016-06-24T04:00:10.930Z,4
2016-06-24T04:01:10.332Z,4
2016-06-24T04:02:11.525Z,4
2016-06-24T04:03:11.549Z,4
2016-06-24T04:04:10.356Z,8
2016-06-24T04:05:10.971Z,8
2016-06-24T04:06:10.359Z,4
2016-06-24T04:07:10.382Z,4
2016-06-24T04:08:11.002Z,8
2016-06-24T04:09:10.400Z,8
2016-06-24T04:10:10.420Z,8
2016-06-24T04:11:11.643Z,8
2016-06-24T04:12:11.031Z,8
2016-06-24T04:13:10.451Z,8
2016-06-24T04:14:11.050Z,8
2016-06-24T04:15:09.877Z,8
2016-06-24T04:16:11.099Z,8
2016-06-24T04:17:10.483Z,12
2016-06-24T04:18:11.108Z,12
2016-06-24T04:19:11.126Z,8
2016-06-24T04:20:11.136Z,12
2016-06-24T04:21:10.534Z,12
2016-06-24T04:22:11.159Z,12
2016-06-24T04:23:11.769Z,8
2016-06-24T04:24:11.175Z,8
2016-06-24T04:25:11.181Z,8
2016-06-24T04:26:10.597Z,12
2016-06-24T04:27:10.594Z,12
2016-06-24T04:28:10.597Z,12
2016-06-24T04:29:10.614Z,12
2016-06-24T04:30:11.859Z,12
2016-06-24T04:31:10.027Z,12
2016-06-24T04:32:11.255Z,12
2016-06-24T04:33:10.088Z,16
2016-06-24T04:34:11.281Z,12
2016-06-24T04:35:11.868Z,12
2016-06-24T04:36:11.906Z,12
2016-06-24T04:37:11.521Z,12
2016-06-24T04:38:11.321Z,12
2016-06-24T04:39:10.724Z,12
2016-06-24T04:40:10.725Z,12
2016-06-24T04:41:11.345Z,12
2016-06-24T04:42:10.755Z,12
2016-06-24T04:43:10.158Z,16
2016-06-24T04:44:11.387Z,12
2016-06-24T04:45:10.786Z,12
2016-06-24T04:46:10.806Z,16
2016-06-24T04:47:11.427Z,16
2016-06-24T04:48:10.810Z,12
2016-06-24T04:49:12.023Z,12
2016-06-24T04:50:10.248Z,12
2016-06-24T04:51:10.855Z,12
2016-06-24T04:52:11.455Z,12
2016-06-24T04:53:12.066Z,12
2016-06-24T04:54:10.893Z,12
2016-06-24T04:55:10.894Z,12
2016-06-24T04:56:11.500Z,12
2016-06-24T04:57:11.515Z,12
2016-06-24T04:58:11.531Z,12
2016-06-24T04:59:10.942Z,12
2016-06-24T05:00:12.146Z,12
2016-06-24T05:01:11.560Z,12
2016-06-24T05:02:12.178Z,12
2016-06-24T05:03:10.995Z,12
2016-06-24T05:04:12.194Z,12
2016-06-24T05:05:11.586Z,12
2016-06-24T05:06:12.211Z,12
2016-06-24T05:07:12.218Z,12
2016-06-24T05:08:11.638Z,12
2016-06-24T05:09:11.635Z,12
2016-06-24T05:10:10.449Z,8
2016-06-24T05:11:11.092Z,8
2016-06-24T05:12:11.663Z,8
2016-06-24T05:13:12.275Z,8
2016-06-24T05:14:11.096Z,8
2016-06-24T05:15:11.109Z,8
2016-06-24T05:16:11.717Z,8
2016-06-24T05:17:11.740Z,8
2016-06-24T05:18:11.146Z,8
2016-06-24T05:19:11.755Z,8
2016-06-24T05:20:11.759Z,8
2016-06-24T05:21:12.419Z,8
2016-06-24T05:22:11.166Z,8
2016-06-24T05:23:11.783Z,8
2016-06-24T05:24:12.411Z,12
2016-06-24T05:25:11.834Z,12
2016-06-24T05:26:11.253Z,12
2016-06-24T05:27:10.638Z,12
2016-06-24T05:28:12.458Z,12
2016-06-24T05:29:11.854Z,12
2016-06-24T05:30:11.863Z,12
2016-06-24T05:31:10.678Z,12
2016-06-24T05:32:10.678Z,12
2016-06-24T05:33:11.899Z,12
2016-06-24T05:34:11.914Z,12
2016-06-24T05:35:11.323Z,12
2016-06-24T05:36:12.533Z,12
2016-06-24T05:37:11.391Z,12
2016-06-24T05:38:11.963Z,12
2016-06-24T05:39:11.966Z,12
2016-06-24T05:40:12.581Z,12
2016-06-24T05:41:11.393Z,12
2016-06-24T05:42:11.390Z,12
2016-06-24T05:43:10.843Z,12
2016-06-24T05:44:12.009Z,12
2016-06-24T05:45:12.671Z,12
2016-06-24T05:46:12.041Z,12
2016-06-24T05:47:11.455Z,12
2016-06-24T05:48:11.482Z,12
2016-06-24T05:49:12.078Z,12
2016-06-24T05:50:12.086Z,12
2016-06-24T05:51:12.697Z,12
2016-06-24T05:52:10.915Z,12
2016-06-24T05:53:12.130Z,12
2016-06-24T05:54:11.548Z,12
2016-06-24T05:55:12.166Z,12
2016-06-24T05:56:12.150Z,12
2016-06-24T05:57:11.563Z,8
2016-06-24T05:58:12.176Z,12
2016-06-24T05:59:11.585Z,12
2016-06-24T06:00:12.221Z,12
2016-06-24T06:01:11.611Z,12
2016-06-24T06:02:12.817Z,12
2016-06-24T06:03:12.821Z,12
2016-06-24T06:04:11.646Z,12
2016-06-24T06:05:11.651Z,12
2016-06-24T06:06:11.661Z,12
2016-06-24T06:07:11.677Z,12
2016-06-24T06:08:11.690Z,12
2016-06-24T06:09:11.123Z,12
2016-06-24T06:10:12.299Z,12
2016-06-24T06:11:12.907Z,12
2016-06-24T06:12:12.323Z,8
2016-06-24T06:13:12.583Z,12
2016-06-24T06:14:12.359Z,12
2016-06-24T06:15:12.343Z,12
2016-06-24T06:16:12.414Z,12
2016-06-24T06:17:11.208Z,12
2016-06-24T06:18:12.987Z,12
2016-06-24T06:19:12.410Z,12
2016-06-24T06:20:12.638Z,12
2016-06-24T06:21:12.423Z,12
2016-06-24T06:22:12.422Z,12
2016-06-24T06:23:11.275Z,12
2016-06-24T06:24:13.055Z,12
2016-06-24T06:25:12.468Z,12
2016-06-24T06:26:11.891Z,12
2016-06-24T06:27:12.556Z,12
2016-06-24T06:28:11.897Z,12
2016-06-24T06:29:11.922Z,12
2016-06-24T06:30:11.920Z,12
2016-06-24T06:31:13.134Z,12
2016-06-24T06:32:12.541Z,12
2016-06-24T06:33:11.353Z,12
2016-06-24T06:34:11.975Z,12
2016-06-24T06:35:13.172Z,12
2016-06-24T06:36:12.600Z,12
2016-06-24T06:37:11.998Z,12
2016-06-24T06:38:12.041Z,12
2016-06-24T06:39:13.238Z,12
2016-06-24T06:40:11.451Z,12
2016-06-24T06:41:12.046Z,8
2016-06-24T06:42:13.255Z,8
2016-06-24T06:43:12.068Z,8
2016-06-24T06:44:12.083Z,8
2016-06-24T06:45:12.692Z,8
2016-06-24T06:46:12.704Z,8
2016-06-24T06:47:11.518Z,8
2016-06-24T06:48:12.715Z,12
2016-06-24T06:49:12.141Z,8
2016-06-24T06:50:12.144Z,8
2016-06-24T06:51:13.350Z,8
2016-06-24T06:52:12.763Z,8
2016-06-24T06:53:12.771Z,8
2016-06-24T06:54:12.191Z,8
2016-06-24T06:55:11.618Z,8
2016-06-24T06:56:12.631Z,8
2016-06-24T06:57:12.835Z,8
2016-06-24T06:58:13.451Z,8
2016-06-24T06:59:13.453Z,8
2016-06-24T07:00:12.274Z,12
2016-06-24T07:01:11.663Z,12
2016-06-24T07:02:12.893Z,12
2016-06-24T07:03:12.898Z,12
2016-06-24T07:04:13.495Z,12
2016-06-24T07:05:11.711Z,12
2016-06-24T07:06:12.918Z,8
2016-06-24T07:07:12.338Z,8
2016-06-24T07:08:12.952Z,8
2016-06-24T07:09:13.012Z,8
2016-06-24T07:10:12.954Z,8
2016-06-24T07:11:12.409Z,8
2016-06-24T07:12:12.984Z,8
2016-06-24T07:13:13.611Z,8
2016-06-24T07:14:11.818Z,8
2016-06-24T07:15:12.435Z,8
2016-06-24T07:16:12.435Z,8
2016-06-24T07:17:13.075Z,8
2016-06-24T07:18:13.654Z,8
2016-06-24T07:19:12.468Z,8
2016-06-24T07:20:12.476Z,8
2016-06-24T07:21:13.101Z,8
2016-06-24T07:22:11.898Z,8
2016-06-24T07:23:13.712Z,8
2016-06-24T07:24:13.132Z,12
2016-06-24T07:25:13.141Z,16
2016-06-24T07:27:13.768Z,16
2016-06-24T07:28:13.181Z,16
2016-06-24T07:29:13.200Z,16
2016-06-24T07:30:12.586Z,16
2016-06-24T07:31:13.789Z,16
2016-06-24T07:32:12.610Z,16
2016-06-24T07:33:12.641Z,16
2016-06-24T07:34:13.222Z,16
2016-06-24T07:35:12.638Z,16
2016-06-24T07:36:13.264Z,16
2016-06-24T07:37:12.667Z,16
2016-06-24T07:38:13.275Z,16
2016-06-24T07:39:12.695Z,16
2016-06-24T07:40:12.111Z,16
2016-06-24T07:41:13.913Z,16
2016-06-24T07:42:13.305Z,16
2016-06-24T07:43:12.149Z,16
2016-06-24T07:44:13.370Z,16
2016-06-24T07:45:13.947Z,16
2016-06-24T07:46:13.977Z,16
2016-06-24T07:47:13.397Z,16
2016-06-24T07:48:14.015Z,16
2016-06-24T07:49:14.013Z,16
2016-06-24T07:50:14.022Z,16
2016-06-24T07:51:12.839Z,16
2016-06-24T07:52:12.237Z,16
2016-06-24T07:53:14.050Z,16
2016-06-24T07:54:12.888Z,20
2016-06-24T07:55:12.875Z,20
2016-06-24T07:56:14.073Z,20
2016-06-24T07:57:13.527Z,20
2016-06-24T07:58:12.938Z,20
2016-06-24T07:59:12.910Z,20
2016-06-24T08:00:14.147Z,20
2016-06-24T08:01:13.546Z,16
2016-06-24T08:02:13.553Z,16
2016-06-24T08:03:14.162Z,16
2016-06-24T08:04:12.368Z,16
2016-06-24T08:05:13.790Z,16
2016-06-24T08:06:12.987Z,16
2016-06-24T08:07:13.601Z,16
2016-06-24T08:08:13.610Z,16
2016-06-24T08:09:12.412Z,16
2016-06-24T08:10:14.046Z,16
2016-06-24T08:11:12.459Z,16
2016-06-24T08:12:13.688Z,16
2016-06-24T08:13:13.055Z,16
2016-06-24T08:14:13.673Z,16
2016-06-24T08:15:13.099Z,16
2016-06-24T08:16:13.112Z,16
2016-06-24T08:17:13.172Z,16
2016-06-24T08:18:14.372Z,20
2016-06-24T08:19:13.170Z,20
2016-06-24T08:20:14.357Z,20
2016-06-24T08:21:14.357Z,20
2016-06-24T08:22:13.785Z,20
2016-06-24T08:23:14.215Z,20
2016-06-24T08:24:13.467Z,20
2016-06-24T08:25:14.409Z,20
2016-06-24T08:26:13.826Z,20
2016-06-24T08:27:13.230Z,20
2016-06-24T08:28:13.252Z,20
2016-06-24T08:29:13.248Z,20
2016-06-24T08:30:13.860Z,20
2016-06-24T08:31:13.290Z,20
2016-06-24T08:32:13.878Z,20
2016-06-24T08:33:12.691Z,16
2016-06-24T08:34:13.317Z,20
2016-06-24T08:35:12.764Z,20
2016-06-24T08:36:12.733Z,20
2016-06-24T08:37:12.758Z,20
2016-06-24T08:38:13.366Z,20
2016-06-24T08:39:13.362Z,20
2016-06-24T08:40:14.554Z,20
2016-06-24T08:41:13.383Z,20
2016-06-24T08:42:13.402Z,20
2016-06-24T08:43:14.618Z,20
2016-06-24T08:44:14.012Z,20
2016-06-24T08:45:13.442Z,20
2016-06-24T08:46:12.854Z,20
2016-06-24T08:47:12.859Z,20
2016-06-24T08:48:14.072Z,20
2016-06-24T08:49:14.083Z,20
2016-06-24T08:50:13.497Z,24
2016-06-24T08:51:14.718Z,24
2016-06-24T08:52:14.116Z,24
2016-06-24T08:53:14.139Z,24
2016-06-24T08:54:13.539Z,24
2016-06-24T08:55:14.757Z,24
2016-06-24T08:56:14.166Z,24
2016-06-24T08:57:14.181Z,24
2016-06-24T08:58:13.583Z,24
2016-06-24T08:59:14.209Z,24
2016-06-24T09:00:13.609Z,24
2016-06-24T09:01:13.016Z,24
2016-06-24T09:02:13.635Z,20
2016-06-24T09:03:13.654Z,20
2016-06-24T09:04:13.642Z,20
2016-06-24T09:05:14.288Z,20
2016-06-24T09:06:14.289Z,20
2016-06-24T09:07:14.287Z,24
2016-06-24T09:08:14.296Z,24
2016-06-24T09:09:13.135Z,24
2016-06-24T09:10:13.724Z,24
2016-06-24T09:11:14.371Z,24
2016-06-24T09:12:13.744Z,24
2016-06-24T09:13:13.769Z,24
2016-06-24T09:14:13.184Z,24
2016-06-24T09:15:14.391Z,24
2016-06-24T09:16:13.203Z,24
2016-06-24T09:17:13.201Z,24
2016-06-24T09:18:14.414Z,24
2016-06-24T09:19:14.423Z,24
2016-06-24T09:20:13.246Z,24
2016-06-24T09:21:14.459Z,24
2016-06-24T09:22:14.466Z,24
2016-06-24T09:23:14.476Z,24
2016-06-24T09:24:13.891Z,24
2016-06-24T09:25:14.518Z,28
2016-06-24T09:26:13.924Z,28
2016-06-24T09:27:13.330Z,28
2016-06-24T09:28:15.128Z,24
2016-06-24T09:29:14.554Z,24
2016-06-24T09:30:14.558Z,24
2016-06-24T09:31:13.365Z,24
2016-06-24T09:32:14.573Z,24
2016-06-24T09:33:14.001Z,24
2016-06-24T09:34:14.616Z,24
2016-06-24T09:35:15.207Z,24
2016-06-24T09:36:14.032Z,24
2016-06-24T09:37:13.426Z,24
2016-06-24T09:38:14.054Z,24
2016-06-24T09:39:13.475Z,24
2016-06-24T09:40:15.260Z,24
2016-06-24T09:41:13.478Z,24
2016-06-24T09:42:14.092Z,28
2016-06-24T09:43:14.107Z,28
2016-06-24T09:44:13.518Z,28
2016-06-24T09:45:14.147Z,28
2016-06-24T09:46:13.547Z,28
2016-06-24T09:47:14.782Z,28
2016-06-24T09:48:14.761Z,28
2016-06-24T09:49:14.781Z,28
2016-06-24T09:50:14.796Z,28
2016-06-24T09:51:14.216Z,28
2016-06-24T09:52:14.824Z,28
2016-06-24T09:53:14.819Z,28
2016-06-24T09:54:14.826Z,28
2016-06-24T09:55:14.236Z,28
2016-06-24T09:56:13.642Z,28
2016-06-24T09:57:13.669Z,28
2016-06-24T09:58:14.871Z,28
2016-06-24T09:59:14.880Z,28
2016-06-24T10:00:14.906Z,28
2016-06-24T10:01:13.718Z,28
2016-06-24T10:02:15.523Z,28
2016-06-24T10:03:14.342Z,28
2016-06-24T10:04:15.014Z,28
2016-06-24T10:05:13.770Z,28
2016-06-24T10:06:14.373Z,28
2016-06-24T10:07:14.372Z,24
2016-06-24T10:08:14.397Z,24
2016-06-24T10:09:15.428Z,28
2016-06-24T10:10:15.033Z,28
2016-06-24T10:11:14.429Z,28
2016-06-24T10:12:14.948Z,28
2016-06-24T10:13:13.871Z,28
2016-06-24T10:14:14.469Z,28
2016-06-24T10:15:15.082Z,28
2016-06-24T10:16:13.897Z,28
2016-06-24T10:17:14.541Z,28
2016-06-24T10:18:15.100Z,28
2016-06-24T10:19:15.136Z,28
2016-06-24T10:20:15.139Z,28
2016-06-24T10:21:15.135Z,28
2016-06-24T10:22:15.160Z,28
2016-06-24T10:23:15.191Z,28
2016-06-24T10:24:15.777Z,28
2016-06-24T10:25:14.621Z,28
2016-06-24T10:26:14.614Z,28
2016-06-24T10:27:15.249Z,28
2016-06-24T10:28:14.649Z,24
2016-06-24T10:29:15.849Z,24
2016-06-24T10:30:14.646Z,24
2016-06-24T10:31:16.235Z,20
2016-06-24T10:32:15.882Z,20
2016-06-24T10:33:15.295Z,20
2016-06-24T10:34:14.731Z,20
2016-06-24T10:35:15.333Z,20
2016-06-24T10:36:14.731Z,20
2016-06-24T10:37:15.337Z,20
2016-06-24T10:38:14.762Z,20
2016-06-24T10:39:14.190Z,20
2016-06-24T10:40:15.383Z,20
2016-06-24T10:41:14.198Z,20
2016-06-24T10:42:14.810Z,20
2016-06-24T10:43:14.801Z,28
2016-06-24T10:44:14.219Z,28
2016-06-24T10:45:14.241Z,28
2016-06-24T10:46:15.431Z,28
2016-06-24T10:47:15.458Z,32
2016-06-24T10:48:16.106Z,32
2016-06-24T10:49:15.528Z,32
2016-06-24T10:50:14.297Z,32
2016-06-24T10:51:16.098Z,28
2016-06-24T10:52:14.916Z,28
2016-06-24T10:53:15.523Z,28
2016-06-24T10:54:14.943Z,28
2016-06-24T10:55:15.575Z,28
2016-06-24T10:56:14.966Z,28
2016-06-24T10:57:14.406Z,28
2016-06-24T10:58:15.614Z,28
2016-06-24T10:59:14.998Z,28
2016-06-24T11:00:14.414Z,28
2016-06-24T11:01:14.423Z,28
2016-06-24T11:02:15.030Z,28
2016-06-24T11:03:15.639Z,28
2016-06-24T11:04:14.463Z,28
2016-06-24T11:05:16.253Z,24
2016-06-24T11:06:16.262Z,24
2016-06-24T11:07:14.500Z,24
2016-06-24T11:08:15.725Z,24
2016-06-24T11:09:16.314Z,28
2016-06-24T11:10:14.528Z,28
2016-06-24T11:11:14.541Z,28
2016-06-24T11:12:15.744Z,28
2016-06-24T11:13:15.167Z,28
2016-06-24T11:14:15.178Z,24
2016-06-24T11:15:16.376Z,24
2016-06-24T11:16:16.394Z,24
2016-06-24T11:17:15.409Z,24
2016-06-24T11:18:15.816Z,24
2016-06-24T11:19:15.823Z,24
2016-06-24T11:20:15.251Z,24
2016-06-24T11:21:15.277Z,24
2016-06-24T11:22:15.265Z,24
2016-06-24T11:23:15.880Z,28
2016-06-24T11:24:15.297Z,24
2016-06-24T11:25:15.914Z,24
2016-06-24T11:26:15.320Z,24
2016-06-24T11:27:15.922Z,24
2016-06-24T11:28:15.910Z,24
2016-06-24T11:29:16.539Z,24
2016-06-24T11:30:15.343Z,24
2016-06-24T11:31:15.973Z,24
2016-06-24T11:32:15.386Z,24
2016-06-24T11:33:15.997Z,24
2016-06-24T11:34:15.409Z,24
2016-06-24T11:35:16.610Z,24
2016-06-24T11:36:16.034Z,24
2016-06-24T11:37:16.042Z,24
2016-06-24T11:38:16.079Z,24
2016-06-24T11:39:16.269Z,24
2016-06-24T11:40:16.379Z,24
2016-06-24T11:41:16.375Z,24
2016-06-24T11:42:15.630Z,24
2016-06-24T11:43:16.801Z,24
2016-06-24T11:44:17.196Z,28
2016-06-24T11:45:17.123Z,28
2016-06-24T11:46:16.286Z,32
2016-06-24T11:47:16.161Z,32
2016-06-24T11:48:14.965Z,32
2016-06-24T11:49:15.593Z,32
2016-06-24T11:50:15.578Z,32
2016-06-24T11:51:16.789Z,32
2016-06-24T11:52:15.618Z,32
2016-06-24T11:53:16.211Z,32
2016-06-24T11:54:15.028Z,32
2016-06-24T11:55:15.062Z,32
2016-06-24T11:56:15.065Z,32
2016-06-24T11:57:16.279Z,32
2016-06-24T11:58:15.679Z,32
2016-06-24T11:59:15.711Z,32
2016-06-24T12:00:16.333Z,32
2016-06-24T12:01:16.664Z,32
2016-06-24T12:02:16.334Z,32
2016-06-24T12:03:16.346Z,32
2016-06-24T12:04:15.165Z,32
2016-06-24T12:05:15.782Z,32
2016-06-24T12:06:15.788Z,32
2016-06-24T12:07:16.397Z,32
2016-06-24T12:08:16.997Z,32
2016-06-24T12:09:15.861Z,28
2016-06-24T12:10:17.026Z,28
2016-06-24T12:11:16.434Z,32
2016-06-24T12:12:16.454Z,32
2016-06-24T12:13:16.465Z,32
2016-06-24T12:14:15.269Z,32
2016-06-24T12:15:16.503Z,32
2016-06-24T12:16:15.904Z,32
2016-06-24T12:17:15.926Z,32
2016-06-24T12:18:15.936Z,32
2016-06-24T12:19:16.543Z,32
2016-06-24T12:20:16.550Z,32
2016-06-24T12:21:16.557Z,32
2016-06-24T12:22:16.583Z,32
2016-06-24T12:23:15.973Z,32
2016-06-24T12:24:16.033Z,32
2016-06-24T12:25:15.423Z,32
2016-06-24T12:26:16.057Z,32
2016-06-24T12:27:16.049Z,32
2016-06-24T12:28:15.433Z,32
2016-06-24T12:29:16.053Z,32
2016-06-24T12:30:16.670Z,28
2016-06-24T12:31:15.491Z,32
2016-06-24T12:32:16.084Z,28
2016-06-24T12:33:16.709Z,28
2016-06-24T12:34:16.130Z,28
2016-06-24T12:35:17.323Z,28
2016-06-24T12:36:17.347Z,28
2016-06-24T12:37:15.571Z,28
2016-06-24T12:38:16.766Z,28
2016-06-24T12:39:17.381Z,28
2016-06-24T12:40:16.778Z,28
2016-06-24T12:41:16.201Z,32
2016-06-24T12:42:16.804Z,32
2016-06-24T12:43:16.228Z,32
2016-06-24T12:44:15.640Z,32
2016-06-24T12:45:16.266Z,32
2016-06-24T12:46:17.507Z,32
2016-06-24T12:47:16.275Z,32
2016-06-24T12:48:16.299Z,32
2016-06-24T12:49:16.312Z,32
2016-06-24T12:50:17.518Z,32
2016-06-24T12:51:16.320Z,32
2016-06-24T12:52:16.946Z,32
2016-06-24T12:53:15.744Z,32
2016-06-24T12:54:16.979Z,32
2016-06-24T12:55:17.001Z,28
2016-06-24T12:56:15.799Z,32
2016-06-24T12:57:17.605Z,28
2016-06-24T12:58:16.405Z,28
2016-06-24T12:59:17.038Z,28
2016-06-24T13:00:17.062Z,28
2016-06-24T13:01:15.850Z,28
2016-06-24T13:02:17.059Z,28
2016-06-24T13:03:17.073Z,28
2016-06-24T13:04:17.059Z,28
2016-06-24T13:05:16.498Z,28
2016-06-24T13:06:16.508Z,28
2016-06-24T13:07:17.117Z,28
2016-06-24T13:08:17.743Z,28
2016-06-24T13:09:16.544Z,28
2016-06-24T13:10:15.949Z,28
2016-06-24T13:11:15.977Z,28
2016-06-24T13:12:15.997Z,28
2016-06-24T13:13:17.790Z,28
2016-06-24T13:14:17.238Z,28
2016-06-24T13:15:16.637Z,28
2016-06-24T13:16:17.848Z,28
2016-06-24T13:17:16.711Z,28
2016-06-24T13:18:16.654Z,28
2016-06-24T13:19:16.073Z,32
2016-06-24T13:20:17.293Z,32
2016-06-24T13:21:17.298Z,28
2016-06-24T13:22:16.707Z,28
2016-06-24T13:23:17.309Z,32
2016-06-24T13:24:17.347Z,28
2016-06-24T13:25:16.749Z,28
2016-06-24T13:26:16.155Z,32
2016-06-24T13:27:17.399Z,28
2016-06-24T13:28:17.379Z,28
2016-06-24T13:29:17.398Z,28
2016-06-24T13:30:17.995Z,32
2016-06-24T13:31:17.402Z,32
2016-06-24T13:32:17.442Z,32
2016-06-24T13:33:16.838Z,28
2016-06-24T13:34:18.050Z,28
2016-06-24T13:35:17.478Z,28
2016-06-24T13:36:16.897Z,28
2016-06-24T13:37:17.483Z,28
2016-06-24T13:38:18.119Z,28
2016-06-24T13:39:18.119Z,28
2016-06-24T13:40:18.130Z,28
2016-06-24T13:41:16.940Z,24
2016-06-24T13:42:16.350Z,28
2016-06-24T13:43:17.579Z,28
2016-06-24T13:44:16.391Z,28
2016-06-24T13:45:17.017Z,28
2016-06-24T13:46:17.605Z,28
2016-06-24T13:47:17.623Z,28
2016-06-24T13:48:18.226Z,28
2016-06-24T13:49:17.038Z,28
2016-06-24T13:50:17.057Z,28
2016-06-24T13:51:17.663Z,28
2016-06-24T13:52:16.490Z,28
2016-06-24T13:53:17.686Z,28
2016-06-24T13:54:18.294Z,28
2016-06-24T13:55:17.696Z,28
2016-06-24T13:56:17.730Z,28
2016-06-24T13:57:17.149Z,28
2016-06-24T13:58:17.147Z,28
2016-06-24T13:59:17.154Z,28
2016-06-24T14:00:17.170Z,28
2016-06-24T14:01:17.216Z,28
2016-06-24T14:02:17.211Z,28
2016-06-24T14:03:16.630Z,28
2016-06-24T14:04:17.239Z,28
2016-06-24T14:05:17.831Z,28
2016-06-24T14:06:16.657Z,28
2016-06-24T14:07:18.493Z,28
2016-06-24T14:08:17.279Z,28
2016-06-24T14:09:17.293Z,28
2016-06-24T14:10:17.296Z,28
2016-06-24T14:11:17.905Z,28
2016-06-24T14:12:17.339Z,28
2016-06-24T14:13:17.972Z,28
2016-06-24T14:14:17.949Z,28
2016-06-24T14:15:17.950Z,28
2016-06-24T14:16:17.957Z,24
2016-06-24T14:17:17.384Z,24
2016-06-24T14:18:18.005Z,24
2016-06-24T14:19:17.413Z,24
2016-06-24T14:20:18.032Z,24
2016-06-24T14:21:18.687Z,24
2016-06-24T14:22:18.064Z,24
2016-06-24T14:23:18.061Z,24
2016-06-24T14:24:17.470Z,24
2016-06-24T14:25:18.092Z,24
2016-06-24T14:26:17.486Z,24
2016-06-24T14:27:17.534Z,24